Time;durP1;ratioP1;P1;durP2;ratioP2;P2;SDS_P1;SDS_P2;PMS_P1;PMS_P2;Temp;Humidity;BMP_temperature;BMP_pressure;BME280_temperature;BME280_humidity;BME280_pressure;Samples;Min_cycle;Max_cycle;Signal;HPM_P1;HPM_P2
2021/08/12 00:01:17;;;;;;;13.05;6.90;;;;;;;16.23;88.97;94941.52;1680824;84;20955;-54
2021/08/12 00:03:45;;;;;;;13.28;6.78;;;;;;;16.23;89.02;94938.13;1681841;84;21151;-53
2021/08/12 00:06:12;;;;;;;17.12;6.95;;;;;;;16.25;88.80;94943.22;1681099;84;21033;-55
2021/08/12 00:08:39;;;;;;;11.38;8.00;;;;;;;16.25;88.88;94939.05;1666256;85;21102;-55
2021/08/12 00:11:06;;;;;;;14.50;8.15;;;;;;;16.22;88.66;94946.31;1678903;84;21026;-55
2021/08/12 00:13:33;;;;;;;11.65;6.92;;;;;;;16.17;88.71;94940.05;1679204;84;21039;-54
2021/08/12 00:16:00;;;;;;;9.95;6.15;;;;;;;16.12;88.74;94942.09;1677954;84;21191;-54
2021/08/12 00:18:27;;;;;;;9.80;6.28;;;;;;;16.09;88.96;94938.13;1677727;84;20952;-54
2021/08/12 00:20:53;;;;;;;10.70;6.20;;;;;;;16.04;88.97;94942.33;1680234;84;20951;-55
2021/08/12 00:23:20;;;;;;;8.55;6.00;;;;;;;16.02;89.07;94945.43;1676538;84;21479;-54
2021/08/12 00:25:47;;;;;;;7.58;5.62;;;;;;;16.01;89.11;94940.52;1676023;84;21193;-54
2021/08/12 00:28:14;;;;;;;8.15;6.22;;;;;;;16.01;89.03;94941.91;1680760;84;21161;-55
2021/08/12 00:30:41;;;;;;;9.13;5.65;;;;;;;16.01;88.95;94948.06;1679146;84;21034;-53
2021/08/12 00:33:08;;;;;;;11.03;5.35;;;;;;;15.99;88.90;94945.78;1677199;84;21549;-54
2021/08/12 00:35:35;;;;;;;11.05;6.00;;;;;;;16.00;88.86;94944.54;1675539;84;20955;-53
2021/08/12 00:38:02;;;;;;;7.90;5.90;;;;;;;16.01;88.79;94950.23;1673692;83;21081;-54
2021/08/12 00:40:30;;;;;;;10.45;5.83;;;;;;;16.01;88.84;94952.23;1679334;84;21775;-54
2021/08/12 00:42:59;;;;;;;7.62;6.00;;;;;;;16.02;88.78;94948.98;1680554;84;20989;-55
2021/08/12 00:45:26;;;;;;;9.63;6.17;;;;;;;16.03;88.79;94953.30;1678217;84;21505;-54
2021/08/12 00:47:54;;;;;;;13.60;7.08;;;;;;;16.04;88.61;94952.66;1679708;84;21070;-54
2021/08/12 00:50:22;;;;;;;10.68;5.95;;;;;;;16.01;88.67;94944.68;1682462;84;21130;-53
2021/08/12 00:52:49;;;;;;;7.65;5.97;;;;;;;15.99;88.94;94948.56;1677955;84;21093;-53
2021/08/12 00:55:15;;;;;;;9.40;6.30;;;;;;;15.99;89.06;94939.45;1679821;84;21574;-54
2021/08/12 00:57:42;;;;;;;7.53;6.17;;;;;;;15.96;88.96;94942.58;1680080;84;21051;-54
2021/08/12 01:00:10;;;;;;;5.37;4.87;;;;;;;15.94;89.22;94946.42;1677950;84;21073;-54
2021/08/12 01:02:39;;;;;;;8.10;5.58;;;;;;;15.94;89.12;94946.42;1681906;84;21002;-55
2021/08/12 01:05:08;;;;;;;8.70;5.90;;;;;;;15.92;89.01;94939.20;1680415;84;21155;-55
2021/08/12 01:08:06;;;;;;;9.78;6.67;;;;;;;15.94;88.98;94931.80;1680744;84;21000;-54
2021/08/12 01:10:55;;;;;;;11.88;7.30;;;;;;;15.92;88.86;94930.88;1681605;84;21266;-54
2021/08/12 01:13:38;;;;;;;9.98;5.70;;;;;;;15.89;88.92;94936.00;1682128;84;21019;-53
2021/08/12 01:16:06;;;;;;;8.70;6.00;;;;;;;15.86;88.88;94927.84;1635745;84;21008;-54
2021/08/12 01:18:58;;;;;;;9.55;6.90;;;;;;;15.80;89.03;94938.09;1682455;84;21971;-53
2021/08/12 01:21:53;;;;;;;12.60;7.03;;;;;;;15.77;89.37;94940.43;1680011;84;21112;-53
2021/08/12 01:24:20;;;;;;;10.40;6.50;;;;;;;15.78;89.54;94942.74;1675098;84;20970;-54
2021/08/12 01:26:53;;;;;;;10.08;6.35;;;;;;;15.76;89.53;94943.06;1680758;84;20975;-54
2021/08/12 01:29:53;;;;;;;10.88;7.17;;;;;;;15.70;89.75;94939.42;1676572;84;20960;-53
2021/08/12 01:32:31;;;;;;;14.05;7.28;;;;;;;15.62;90.07;94933.47;1673685;84;21776;-54
2021/08/12 01:35:02;;;;;;;10.88;7.45;;;;;;;15.57;90.21;94927.17;1658827;84;21475;-55
2021/08/12 01:37:36;;;;;;;17.52;8.58;;;;;;;15.52;90.30;94932.63;1677918;84;21589;-55
2021/08/12 01:40:04;;;;;;;18.57;8.53;;;;;;;15.47;90.44;94932.66;1679556;84;21047;-55
2021/08/12 01:42:31;;;;;;;17.73;8.40;;;;;;;15.43;90.48;94925.76;1669178;85;21060;-54
2021/08/12 01:44:58;;;;;;;19.23;7.78;;;;;;;15.38;90.56;94934.73;1679750;84;21087;-55
2021/08/12 01:47:25;;;;;;;13.30;8.38;;;;;;;15.33;90.87;94927.83;1671772;84;21065;-55
2021/08/12 01:49:55;;;;;;;15.58;8.30;;;;;;;15.26;91.12;94926.78;1676234;84;21173;-55
2021/08/12 01:52:23;;;;;;;14.50;9.13;;;;;;;15.21;91.43;94921.87;1679177;84;21107;-54
2021/08/12 01:54:50;;;;;;;20.05;14.18;;;;;;;15.20;91.61;94928.66;1677524;84;20967;-55
2021/08/12 01:57:17;;;;;;;16.32;12.55;;;;;;;15.23;91.59;94927.73;1677106;84;21121;-54
2021/08/12 01:59:44;;;;;;;9.93;7.78;;;;;;;15.29;91.62;94933.40;1677920;84;21665;-54
2021/08/12 02:02:11;;;;;;;7.62;6.65;;;;;;;15.31;91.23;94926.76;1681885;84;21050;-54
2021/08/12 02:04:39;;;;;;;6.87;5.75;;;;;;;15.28;90.90;94927.69;1680970;84;21003;-55
2021/08/12 02:07:06;;;;;;;12.63;7.58;;;;;;;15.26;90.61;94929.56;1678896;84;21446;-54
2021/08/12 02:09:34;;;;;;;12.55;7.00;;;;;;;15.24;90.63;94928.48;1677675;84;21003;-54
2021/08/12 02:12:04;;;;;;;9.73;6.95;;;;;;;15.24;90.94;94922.94;1679821;84;20951;-55
2021/08/12 02:14:34;;;;;;;12.25;7.25;;;;;;;15.26;90.98;94926.78;1682046;84;21048;-53
2021/08/12 02:17:00;;;;;;;8.63;6.00;;;;;;;15.31;90.85;94922.00;1679735;84;21105;-53
2021/08/12 02:19:28;;;;;;;8.28;6.37;;;;;;;15.32;90.62;94926.94;1678755;84;21046;-53
2021/08/12 02:22:15;;;;;;;9.00;6.15;;;;;;;15.32;90.41;94929.08;1679093;84;21799;-54
2021/08/12 02:25:00;;;;;;;9.30;6.22;;;;;;;15.33;90.18;94926.45;1678713;84;21026;-54
2021/08/12 02:27:27;;;;;;;10.53;6.83;;;;;;;15.33;90.09;94926.45;1679652;83;21002;-55
2021/08/12 02:29:53;;;;;;;12.53;7.85;;;;;;;15.32;90.21;94921.39;1676199;84;20983;-54
2021/08/12 02:32:21;;;;;;;11.40;7.72;;;;;;;15.30;90.54;94927.39;1677165;84;21033;-54
2021/08/12 02:34:48;;;;;;;12.35;8.78;;;;;;;15.33;90.94;94917.37;1678659;84;21118;-54
2021/08/12 02:37:18;;;;;;;11.50;8.25;;;;;;;15.37;90.88;94920.73;1662115;84;21197;-54
2021/08/12 02:39:45;;;;;;;10.00;6.03;;;;;;;15.39;90.90;94921.77;1678855;84;21577;-55
2021/08/12 02:42:13;;;;;;;8.83;6.03;;;;;;;15.43;90.79;94927.92;1679471;84;21585;-54
2021/08/12 02:44:41;;;;;;;9.90;7.42;;;;;;;15.40;90.61;94928.84;1678101;84;21002;-53
2021/08/12 02:47:08;;;;;;;18.67;13.03;;;;;;;15.34;90.56;94933.52;1678121;84;21828;-53
2021/08/12 02:49:38;;;;;;;28.20;19.15;;;;;;;15.34;90.91;94936.93;1675815;84;20994;-53
2021/08/12 02:52:06;;;;;;;15.50;12.03;;;;;;;15.36;90.81;94949.70;1675312;83;21083;-55
2021/08/12 02:54:33;;;;;;;12.65;7.47;;;;;;;15.37;90.83;94949.20;1679242;84;21078;-54
2021/08/12 02:57:00;;;;;;;9.65;7.12;;;;;;;15.38;90.82;94947.97;1671860;84;21007;-53
2021/08/12 02:59:26;;;;;;;17.80;8.58;;;;;;;15.37;91.06;94949.84;1665862;85;21072;-54
2021/08/12 03:01:54;;;;;;;13.38;9.25;;;;;;;15.37;91.34;94947.06;1680990;84;21086;-54
2021/08/12 03:04:22;;;;;;;15.30;9.15;;;;;;;15.33;91.22;94943.72;1677451;84;21099;-53
2021/08/12 03:06:55;;;;;;;16.90;9.90;;;;;;;15.27;91.57;94947.72;1676351;84;21546;-53
2021/08/12 03:09:22;;;;;;;12.40;8.55;;;;;;;15.28;92.09;94952.63;1678149;84;21192;-54
2021/08/12 03:11:50;;;;;;;19.70;8.90;;;;;;;15.31;91.90;94946.16;1680742;84;21207;-54
2021/08/12 03:14:17;;;;;;;14.43;8.03;;;;;;;15.28;91.65;94952.03;1677765;84;22470;-54
2021/08/12 03:16:45;;;;;;;11.45;7.08;;;;;;;15.23;91.75;94956.06;1680159;84;21514;-54
2021/08/12 03:19:18;;;;;;;8.48;6.60;;;;;;;15.20;91.89;94954.98;1679501;84;21243;-54
2021/08/12 03:22:03;;;;;;;9.50;6.37;;;;;;;15.15;91.96;94964.59;1680261;84;21023;-55
2021/08/12 03:24:37;;;;;;;14.83;7.72;;;;;;;15.11;92.12;94966.75;1678763;84;21100;-54
2021/08/12 03:27:07;;;;;;;13.55;11.30;;;;;;;15.14;92.42;94972.13;1681747;84;20991;-53
2021/08/12 03:29:34;;;;;;;22.77;16.62;;;;;;;15.16;92.44;94971.66;1680798;84;20990;-54
2021/08/12 03:32:01;;;;;;;19.95;10.28;;;;;;;15.16;92.45;94963.35;1679425;84;21023;-56
2021/08/12 03:34:28;;;;;;;13.98;8.63;;;;;;;15.20;92.58;94960.53;1677984;84;20955;-54
2021/08/12 03:36:55;;;;;;;12.07;8.68;;;;;;;15.24;92.56;94972.84;1658937;85;21159;-53
2021/08/12 03:39:22;;;;;;;16.32;8.40;;;;;;;15.26;92.56;94969.75;1681930;84;21583;-54
2021/08/12 03:41:51;;;;;;;12.88;8.00;;;;;;;15.31;92.51;94971.12;1679088;84;21090;-53
2021/08/12 03:44:18;;;;;;;13.80;7.80;;;;;;;15.34;92.36;94967.42;1678433;84;21003;-54
2021/08/12 03:46:45;;;;;;;7.80;6.42;;;;;;;15.38;92.14;94981.23;1680764;84;21545;-54
2021/08/12 03:49:11;;;;;;;8.90;6.95;;;;;;;15.40;92.03;94982.16;1680493;84;21067;-54
2021/08/12 03:51:38;;;;;;;13.05;7.00;;;;;;;15.46;92.14;94984.42;1657693;85;21448;-54
2021/08/12 03:54:06;;;;;;;12.05;8.10;;;;;;;15.51;91.89;94980.38;1679076;84;21494;-54
2021/08/12 03:56:33;;;;;;;13.60;8.10;;;;;;;15.50;91.41;94976.08;1671608;85;21023;-55
2021/08/12 03:59:04;;;;;;;14.20;8.95;;;;;;;15.53;91.29;94982.70;1679501;84;21046;-53
2021/08/12 04:01:31;;;;;;;18.12;8.73;;;;;;;15.51;90.52;94983.16;1681550;84;21960;-54
2021/08/12 04:03:59;;;;;;;19.70;9.65;;;;;;;15.46;90.32;94979.66;1677282;84;21420;-54
2021/08/12 04:06:27;;;;;;;17.90;9.33;;;;;;;15.40;90.42;94976.61;1683014;84;21000;-53
2021/08/12 04:08:54;;;;;;;16.97;9.15;;;;;;;15.38;90.52;94984.64;1679135;84;21058;-54
2021/08/12 04:11:21;;;;;;;15.40;10.35;;;;;;;15.36;90.48;94986.48;1664085;85;21030;-53
2021/08/12 04:13:50;;;;;;;14.10;9.15;;;;;;;15.35;90.50;94996.05;1678075;84;21175;-56
2021/08/12 04:16:17;;;;;;;15.85;8.53;;;;;;;15.40;90.58;94996.02;1678598;84;21490;-54
2021/08/12 04:18:45;;;;;;;14.70;8.20;;;;;;;15.43;90.66;94995.86;1680047;84;21207;-53
2021/08/12 04:21:12;;;;;;;10.78;7.37;;;;;;;15.46;90.67;94993.52;1678916;84;21026;-55
2021/08/12 04:23:38;;;;;;;11.30;8.33;;;;;;;15.49;90.41;94998.72;1678188;84;21066;-56
2021/08/12 04:26:06;;;;;;;16.80;8.45;;;;;;;15.52;90.43;95005.48;1677478;84;21024;-55
2021/08/12 04:28:32;;;;;;;19.32;8.48;;;;;;;15.54;90.62;94997.45;1681144;84;21003;-54
2021/08/12 04:31:00;;;;;;;18.27;8.90;;;;;;;15.58;90.55;94999.42;1680297;84;21090;-54
2021/08/12 04:33:29;;;;;;;15.13;8.83;;;;;;;15.60;90.59;95000.35;1679170;84;21002;-54
2021/08/12 04:35:56;;;;;;;12.07;7.10;;;;;;;15.65;90.65;95006.02;1684108;84;21026;-54
2021/08/12 04:38:28;;;;;;;9.73;6.83;;;;;;;15.71;90.59;95004.12;1680322;84;21169;-55
2021/08/12 04:40:55;;;;;;;12.63;7.10;;;;;;;15.84;90.77;95008.80;1680852;84;20963;-55
2021/08/12 04:43:22;;;;;;;14.43;8.65;;;;;;;16.00;90.47;95005.59;1679872;84;21111;-54
2021/08/12 04:45:49;;;;;;;12.37;8.63;;;;;;;16.16;89.89;95016.25;1680404;84;20980;-55
2021/08/12 04:48:17;;;;;;;11.08;8.13;;;;;;;16.23;89.38;95012.31;1676591;84;21008;-54
2021/08/12 04:50:44;;;;;;;10.48;7.45;;;;;;;16.27;88.93;95020.61;1682151;84;21129;-55
2021/08/12 04:53:12;;;;;;;11.48;6.75;;;;;;;16.31;88.42;95020.56;1677193;84;21530;-56
2021/08/12 04:55:39;;;;;;;15.83;7.70;;;;;;;16.35;88.57;95028.75;1679903;84;21083;-57
2021/08/12 04:58:07;;;;;;;11.73;8.05;;;;;;;16.40;88.44;95021.14;1677009;84;21446;-56
2021/08/12 05:00:34;;;;;;;11.45;7.62;;;;;;;16.48;88.08;95020.28;1679557;84;20964;-55
2021/08/12 05:03:01;;;;;;;12.98;7.10;;;;;;;16.51;87.44;95012.38;1668052;84;21530;-55
2021/08/12 05:05:28;;;;;;;12.80;8.03;;;;;;;16.53;86.98;95016.83;1677996;84;20954;-56
2021/08/12 05:07:57;;;;;;;16.73;9.03;;;;;;;16.54;86.83;95024.55;1677419;84;21509;-55
2021/08/12 05:10:24;;;;;;;17.62;8.75;;;;;;;16.57;86.65;95023.59;1675840;84;20967;-54
2021/08/12 05:12:53;;;;;;;16.12;8.13;;;;;;;16.56;86.50;95021.42;1681805;84;21454;-54
2021/08/12 05:15:22;;;;;;;20.48;8.08;;;;;;;16.55;86.49;95021.91;1676722;84;21022;-55
2021/08/12 05:17:49;;;;;;;10.90;7.83;;;;;;;16.55;86.48;95026.08;1679035;84;21055;-54
2021/08/12 05:20:17;;;;;;;12.37;8.20;;;;;;;16.57;86.44;95032.67;1677755;84;21034;-54
2021/08/12 05:22:44;;;;;;;17.30;9.70;;;;;;;16.60;86.17;95031.73;1679508;84;21029;-55
2021/08/12 05:25:11;;;;;;;18.65;9.38;;;;;;;16.64;86.41;95037.09;1678347;84;21704;-55
2021/08/12 05:27:37;;;;;;;11.85;7.47;;;;;;;16.76;86.14;95031.87;1677415;84;21147;-55
2021/08/12 05:30:06;;;;;;;12.35;7.67;;;;;;;16.84;85.46;95033.00;1681065;84;21225;-55
2021/08/12 05:32:35;;;;;;;13.22;8.03;;;;;;;16.90;84.96;95033.88;1679971;84;21601;-56
2021/08/12 05:35:05;;;;;;;17.27;8.98;;;;;;;17.00;84.74;95032.51;1680407;84;21082;-56
2021/08/12 05:37:34;;;;;;;10.93;8.70;;;;;;;17.15;84.42;95040.21;1677538;84;21526;-56
2021/08/12 05:40:00;;;;;;;12.95;10.18;;;;;;;17.28;83.80;95035.11;1668832;84;21163;-56
2021/08/12 05:42:28;;;;;;;11.03;9.15;;;;;;;17.35;83.58;95038.90;1674456;83;21118;-56
2021/08/12 05:44:55;;;;;;;11.35;7.72;;;;;;;17.39;83.44;95038.06;1676518;83;21053;-56
2021/08/12 05:47:24;;;;;;;15.95;9.05;;;;;;;17.42;82.84;95035.73;1675565;84;21141;-55
2021/08/12 05:49:50;;;;;;;14.50;9.08;;;;;;;17.43;82.30;95034.48;1669573;84;21061;-56
2021/08/12 05:52:18;;;;;;;13.32;9.35;;;;;;;17.50;82.42;95039.63;1700192;83;21121;-55
2021/08/12 05:54:46;;;;;;;18.10;8.28;;;;;;;17.58;82.12;95041.52;1673202;84;21540;-55
2021/08/12 05:57:14;;;;;;;11.65;8.05;;;;;;;17.72;81.58;95042.71;1675644;85;21052;-54
2021/08/12 05:59:41;;;;;;;14.13;11.57;;;;;;;17.76;80.91;95044.05;1657335;85;21056;-56
2021/08/12 06:02:07;;;;;;;15.58;11.30;;;;;;;17.78;81.05;95041.53;1671920;83;21531;-57
2021/08/12 06:04:36;;;;;;;20.92;10.93;;;;;;;17.84;80.62;95044.40;1675388;83;21114;-55
2021/08/12 06:07:05;;;;;;;10.48;7.83;;;;;;;17.89;80.73;95043.70;1678079;83;21038;-54
2021/08/12 06:09:32;;;;;;;13.35;8.03;;;;;;;18.02;80.00;95052.47;1673568;83;21219;-57
2021/08/12 06:12:00;;;;;;;12.93;7.65;;;;;;;18.05;79.68;95045.92;1678084;83;21086;-56
2021/08/12 06:14:28;;;;;;;13.48;8.50;;;;;;;18.12;79.42;95045.50;1676786;83;21046;-55
2021/08/12 06:16:56;;;;;;;18.57;8.63;;;;;;;18.12;79.30;95046.89;1679513;83;21106;-57
2021/08/12 06:19:24;;;;;;;9.20;7.95;;;;;;;18.10;79.12;95050.17;1678709;83;21174;-55
2021/08/12 06:21:51;;;;;;;9.85;7.05;;;;;;;18.10;78.84;95054.35;1678085;83;21183;-56
2021/08/12 06:24:18;;;;;;;12.75;6.92;;;;;;;18.10;78.87;95046.61;1672197;83;21563;-61
2021/08/12 06:26:46;;;;;;;8.05;7.22;;;;;;;18.11;78.72;95040.56;1642462;84;21442;-56
2021/08/12 06:29:15;;;;;;;12.63;7.53;;;;;;;18.15;78.62;95050.11;1674132;83;21165;-59
2021/08/12 06:31:42;;;;;;;16.57;9.35;;;;;;;18.12;78.44;95046.89;1648642;83;21185;-57
2021/08/12 06:34:09;;;;;;;10.25;8.33;;;;;;;18.11;78.51;95043.97;1666390;83;21085;-56
2021/08/12 06:36:36;;;;;;;13.78;8.70;;;;;;;18.13;78.78;95046.41;1668021;83;22140;-58
2021/08/12 06:39:03;;;;;;;12.43;9.40;;;;;;;18.21;78.57;95044.11;1675246;83;21124;-57
2021/08/12 06:41:31;;;;;;;14.95;9.08;;;;;;;18.25;78.53;95040.48;1676404;83;22799;-55
2021/08/12 06:44:01;;;;;;;21.07;9.38;;;;;;;18.29;78.69;95036.88;1684761;83;21070;-58
2021/08/12 06:46:27;;;;;;;11.05;7.62;;;;;;;18.42;78.54;95033.09;1684072;82;21063;-57
2021/08/12 06:48:55;;;;;;;9.95;7.45;;;;;;;18.54;77.78;95038.94;1674929;83;21054;-57
2021/08/12 06:51:22;;;;;;;12.13;8.23;;;;;;;18.63;77.36;95037.36;1681088;83;21015;-56
2021/08/12 06:53:51;;;;;;;8.70;7.62;;;;;;;18.72;76.81;95040.00;1678325;83;22354;-57
2021/08/12 06:56:18;;;;;;;10.30;7.15;;;;;;;18.81;76.64;95030.70;1672240;83;21101;-56
2021/08/12 06:58:47;;;;;;;12.88;8.50;;;;;;;18.91;76.23;95034.22;1682089;83;21058;-56
2021/08/12 07:01:15;;;;;;;9.73;8.35;;;;;;;18.99;76.20;95039.47;1668101;83;21161;-55
2021/08/12 07:03:44;;;;;;;10.35;7.87;;;;;;;19.11;75.80;95045.28;1672693;83;21129;-56
2021/08/12 07:06:11;;;;;;;9.53;7.67;;;;;;;19.25;75.57;95043.64;1675122;83;21139;-56
2021/08/12 07:08:39;;;;;;;12.28;8.20;;;;;;;19.41;75.00;95039.56;1683020;83;21062;-61
2021/08/12 07:11:09;;;;;;;8.10;7.30;;;;;;;19.57;74.43;95041.70;1679507;83;21016;-57
2021/08/12 07:13:36;;;;;;;10.93;7.37;;;;;;;19.71;73.81;95042.17;1682453;83;21808;-57
2021/08/12 07:16:06;;;;;;;9.83;6.92;;;;;;;19.89;73.50;95043.16;1672631;83;21109;-58
2021/08/12 07:18:36;;;;;;;10.20;6.72;;;;;;;20.12;72.07;95048.26;1674889;83;21112;-59
2021/08/12 07:21:05;;;;;;;14.90;7.10;;;;;;;20.33;70.07;95051.75;1681429;83;21624;-57
2021/08/12 07:23:34;;;;;;;10.32;6.70;;;;;;;20.46;68.47;95047.25;1681476;83;20995;-59
2021/08/12 07:26:03;;;;;;;9.65;6.22;;;;;;;20.52;67.66;95045.22;1669284;83;21045;-58
2021/08/12 07:28:33;;;;;;;8.45;6.25;;;;;;;20.59;67.84;95042.58;1681271;83;21051;-57
2021/08/12 07:31:02;;;;;;;8.28;6.37;;;;;;;20.63;67.14;95042.47;1683609;83;21049;-60
2021/08/12 07:33:29;;;;;;;12.07;7.47;;;;;;;20.73;67.10;95046.54;1663636;84;21053;-58
2021/08/12 07:35:57;;;;;;;11.97;6.95;;;;;;;20.84;66.38;95048.00;1671416;83;21049;-57
2021/08/12 07:38:25;;;;;;;7.85;6.70;;;;;;;20.91;65.93;95046.74;1669129;83;21031;-57
2021/08/12 07:40:52;;;;;;;10.20;6.35;;;;;;;20.99;66.31;95044.95;1667684;84;21082;-56
2021/08/12 07:43:20;;;;;;;9.88;6.62;;;;;;;21.00;64.94;95038.86;1656176;84;21171;-58
2021/08/12 07:45:46;;;;;;;9.98;5.90;;;;;;;21.04;65.48;95041.39;1679420;83;21050;-59
2021/08/12 07:48:14;;;;;;;10.58;6.58;;;;;;;21.15;65.33;95044.20;1680065;83;21177;-55
2021/08/12 07:50:42;;;;;;;8.70;6.58;;;;;;;21.23;64.26;95036.81;1671378;83;21161;-55
2021/08/12 07:53:10;;;;;;;7.42;5.95;;;;;;;21.30;64.43;95043.32;1669220;83;21092;-61
2021/08/12 07:55:38;;;;;;;8.70;5.90;;;;;;;21.35;64.21;95045.34;1682073;83;21133;-57
2021/08/12 07:58:05;;;;;;;9.25;6.37;;;;;;;21.47;63.76;95046.87;1674971;84;21112;-57
2021/08/12 08:00:34;;;;;;;10.48;7.70;;;;;;;21.59;62.93;95049.77;1674284;83;21490;-58
2021/08/12 08:03:01;;;;;;;12.65;6.97;;;;;;;21.68;62.97;95045.34;1657176;83;21114;-59
2021/08/12 08:05:29;;;;;;;10.60;5.85;;;;;;;21.74;62.58;95048.89;1667132;83;21188;-58
2021/08/12 08:07:58;;;;;;;9.50;6.20;;;;;;;21.81;61.70;95045.58;1659078;84;21675;-57
2021/08/12 08:10:26;;;;;;;7.80;5.87;;;;;;;22.00;62.42;95045.16;1683184;83;21067;-60
2021/08/12 08:12:53;;;;;;;6.75;5.95;;;;;;;22.27;61.80;95049.27;1676500;83;21089;-61
2021/08/12 08:15:22;;;;;;;10.00;5.50;;;;;;;22.55;61.03;95047.89;1664841;83;21140;-59
2021/08/12 08:17:50;;;;;;;21.65;13.95;;;;;;;22.76;60.08;95042.03;1674036;83;21042;-57
2021/08/12 08:20:18;;;;;;;26.57;16.37;;;;;;;22.94;58.31;95041.41;1675760;84;21195;-58
2021/08/12 08:22:47;;;;;;;11.28;7.37;;;;;;;23.15;58.11;95045.99;1678689;83;21058;-55
2021/08/12 08:25:14;;;;;;;7.78;5.65;;;;;;;23.36;57.36;95047.13;1687153;83;21782;-59
2021/08/12 08:27:41;;;;;;;16.70;11.03;;;;;;;23.43;56.32;95050.10;1679173;82;21148;-59
2021/08/12 08:30:10;;;;;;;15.80;7.60;;;;;;;23.32;55.75;95051.62;1682255;83;21199;-57
2021/08/12 08:32:37;;;;;;;13.28;8.30;;;;;;;23.21;55.42;95052.34;1671722;83;21132;-58
2021/08/12 08:35:06;;;;;;;14.47;8.20;;;;;;;23.08;56.09;95048.72;1682959;83;21828;-58
2021/08/12 08:37:33;;;;;;;8.35;5.67;;;;;;;22.97;56.43;95050.81;1688549;83;21219;-59
2021/08/12 08:40:00;;;;;;;9.50;5.50;;;;;;;22.95;56.81;95041.52;1674708;83;21030;-59
2021/08/12 08:42:27;;;;;;;11.18;7.10;;;;;;;23.00;57.08;95036.50;1670373;83;21097;-58
2021/08/12 08:44:56;;;;;;;8.50;6.47;;;;;;;23.05;56.55;95035.70;1686252;83;21334;-58
2021/08/12 08:47:24;;;;;;;8.28;6.20;;;;;;;23.13;56.75;95033.90;1680172;83;21114;-59
2021/08/12 08:49:50;;;;;;;8.93;6.92;;;;;;;23.33;56.38;95034.88;1670530;83;21134;-56
2021/08/12 08:52:18;;;;;;;6.58;4.78;;;;;;;23.48;55.00;95031.69;1676241;83;21097;-57
2021/08/12 08:54:46;;;;;;;11.40;6.62;;;;;;;23.66;55.13;95028.98;1689263;83;21502;-57
2021/08/12 08:57:15;;;;;;;31.77;20.02;;;;;;;23.77;55.02;95028.10;1673131;83;21026;-59
2021/08/12 08:59:42;;;;;;;17.70;9.33;;;;;;;23.83;55.36;95026.80;1677474;83;21089;-58
2021/08/12 09:02:08;;;;;;;11.05;6.08;;;;;;;23.96;56.03;95033.92;1664923;84;20993;-61
2021/08/12 09:04:36;;;;;;;11.15;7.08;;;;;;;24.10;53.89;95029.94;1677640;83;21228;-58
2021/08/12 09:07:07;;;;;;;11.08;5.92;;;;;;;24.23;53.26;95026.58;1671074;83;21101;-61
2021/08/12 09:09:38;;;;;;;8.00;5.70;;;;;;;24.41;53.68;95023.03;1667728;82;21498;-60
2021/08/12 09:12:09;;;;;;;21.33;10.45;;;;;;;24.58;52.01;95031.30;1674723;83;21458;-58
2021/08/12 09:14:41;;;;;;;9.63;6.33;;;;;;;24.55;52.17;95034.52;1661223;83;21077;-58
2021/08/12 09:17:25;;;;;;;32.15;13.85;;;;;;;24.48;51.76;95032.92;1676486;83;21061;-60
2021/08/12 09:20:26;;;;;;;17.17;8.43;;;;;;;24.35;50.65;95041.30;1678795;83;21029;-58
2021/08/12 09:23:04;;;;;;;16.50;8.60;;;;;;;24.20;51.86;95041.70;1679628;83;21123;-58
2021/08/12 09:25:50;;;;;;;8.45;5.75;;;;;;;24.16;51.41;95039.84;1677399;83;21887;-58
2021/08/12 09:28:29;;;;;;;11.20;5.60;;;;;;;24.25;52.24;95033.09;1643668;84;22288;-58
2021/08/12 09:31:03;;;;;;;22.67;8.73;;;;;;;24.45;53.18;95036.80;1686885;83;21080;-54
2021/08/12 09:33:45;;;;;;;21.50;7.45;;;;;;;24.72;53.06;95032.91;1687044;83;21138;-59
2021/08/12 09:36:33;;;;;;;16.02;7.80;;;;;;;24.94;51.59;95031.94;1675973;83;21022;-59
2021/08/12 09:39:15;;;;;;;13.78;5.78;;;;;;;25.12;50.56;95026.18;1657019;83;21646;-57
2021/08/12 09:41:53;;;;;;;11.43;5.35;;;;;;;25.28;49.63;95023.78;1681076;83;21041;-59
2021/08/12 09:44:38;;;;;;;9.43;5.78;;;;;;;25.41;49.10;95023.17;1666567;83;21483;-61
2021/08/12 09:47:20;;;;;;;16.20;6.50;;;;;;;25.53;48.82;95018.11;1683808;83;21014;-57
2021/08/12 09:49:53;;;;;;;9.98;5.80;;;;;;;25.61;48.07;95020.39;1674187;83;21158;-56
2021/08/12 09:52:37;;;;;;;7.28;5.20;;;;;;;25.71;48.55;95005.34;1674959;83;21040;-60
2021/08/12 09:55:18;;;;;;;7.30;5.33;;;;;;;25.77;48.05;95016.52;1677056;84;20990;-58
2021/08/12 09:58:10;;;;;;;7.80;5.10;;;;;;;25.73;48.40;95016.09;1659458;83;21183;-58
2021/08/12 10:00:41;;;;;;;7.40;6.12;;;;;;;25.72;49.26;95024.44;1676149;83;21467;-57
2021/08/12 10:03:24;;;;;;;5.85;4.83;;;;;;;25.81;49.46;95022.63;1665713;83;21132;-57
2021/08/12 10:05:52;;;;;;;7.12;5.45;;;;;;;25.89;48.70;95020.70;1674788;83;21545;-59
2021/08/12 10:08:35;;;;;;;7.17;4.33;;;;;;;26.13;48.64;95033.30;1684308;83;21013;-58
2021/08/12 10:11:28;;;;;;;6.90;5.00;;;;;;;26.18;47.67;95032.45;1681388;82;21558;-59
2021/08/12 10:14:02;;;;;;;5.15;4.28;;;;;;;26.12;47.55;95034.59;1690101;83;21089;-57
2021/08/12 10:16:34;;;;;;;4.42;3.98;;;;;;;26.22;47.31;95035.70;1689107;83;21127;-59
2021/08/12 10:19:09;;;;;;;6.05;4.90;;;;;;;26.54;48.20;95034.95;1684549;83;21969;-56
2021/08/12 10:21:38;;;;;;;6.40;4.65;;;;;;;26.89;47.79;95028.78;1670271;83;21600;-57
2021/08/12 10:24:06;;;;;;;10.05;4.90;;;;;;;27.25;44.99;95035.44;1678895;83;21027;-58
2021/08/12 10:26:34;;;;;;;8.03;4.62;;;;;;;27.55;44.85;95039.98;1682852;83;21199;-58
2021/08/12 10:29:14;;;;;;;8.20;4.35;;;;;;;27.78;44.91;95034.57;1675723;83;21166;-57
2021/08/12 10:31:46;;;;;;;4.60;3.80;;;;;;;27.96;44.57;95037.93;1680892;83;21589;-58
2021/08/12 10:34:13;;;;;;;7.20;3.95;;;;;;;27.96;43.28;95037.16;1667930;83;21176;-57
2021/08/12 10:36:40;;;;;;;5.85;4.08;;;;;;;28.09;43.24;95032.19;1678698;83;21167;-59
2021/08/12 10:39:07;;;;;;;5.53;4.17;;;;;;;28.34;42.71;95025.47;1691835;83;21173;-60
2021/08/12 10:41:35;;;;;;;5.45;3.85;;;;;;;28.46;42.67;95033.77;1680567;83;21909;-59
2021/08/12 10:44:05;;;;;;;7.65;5.08;;;;;;;28.29;42.78;95030.61;1678608;83;21057;-62
2021/08/12 10:46:38;;;;;;;5.67;4.60;;;;;;;;;;1673892;84;21520;-59
2021/08/12 10:49:26;;;;;;;8.35;4.15;;;;;;;27.72;43.66;95036.76;1668408;83;21076;-58
2021/08/12 10:52:08;;;;;;;6.17;4.45;;;;;;;27.47;44.02;95034.92;1678736;83;21030;-57
2021/08/12 10:54:40;;;;;;;5.72;4.12;;;;;;;27.21;44.96;95035.02;1665803;83;21852;-57
2021/08/12 10:57:17;;;;;;;7.05;4.08;;;;;;;26.83;44.25;95028.83;1680562;83;21053;-57
2021/08/12 10:59:44;;;;;;;12.53;4.17;;;;;;;26.50;45.21;95030.94;1661636;83;21027;-57
2021/08/12 11:02:32;;;;;;;5.92;4.15;;;;;;;26.35;45.57;95034.30;1668085;83;20985;-57
2021/08/12 11:05:04;;;;;;;9.73;4.42;;;;;;;26.20;46.41;95034.71;1674006;83;21046;-57
2021/08/12 11:07:47;;;;;;;4.83;3.52;;;;;;;26.51;47.37;95036.69;1675091;83;21113;-60
2021/08/12 11:10:15;;;;;;;6.53;3.90;;;;;;;26.65;46.90;95038.94;1682197;83;21184;-57
2021/08/12 11:13:01;;;;;;;4.00;3.60;;;;;;;27.27;45.62;95032.84;1677064;83;21032;-59
2021/08/12 11:15:43;;;;;;;4.40;3.62;;;;;;;27.89;45.44;95037.87;1675741;83;21077;-58
2021/08/12 11:18:11;;;;;;;4.50;3.08;;;;;;;28.58;43.97;95046.30;1679586;83;21852;-61
2021/08/12 11:20:46;;;;;;;7.97;3.62;;;;;;;29.32;41.50;95042.29;1689474;83;22334;-60
2021/08/12 11:23:26;;;;;;;3.67;3.02;;;;;;;29.93;40.93;95039.00;1675169;83;21073;-59
2021/08/12 11:26:00;;;;;;;4.25;3.42;;;;;;;30.57;40.32;95051.49;1685759;83;21119;-57
2021/08/12 11:28:43;;;;;;;5.78;3.50;;;;;;;30.57;37.33;95047.23;1673273;83;21058;-58
2021/08/12 11:31:27;;;;;;;4.60;3.75;;;;;;;30.05;38.32;95045.17;1677786;83;21564;-58
2021/08/12 11:34:01;;;;;;;3.58;3.00;;;;;;;29.42;39.86;95051.75;1680166;83;21180;-57
2021/08/12 11:36:39;;;;;;;3.83;3.20;;;;;;;28.94;40.54;95058.41;1671919;83;21437;-59
2021/08/12 11:39:08;;;;;;;3.65;3.20;;;;;;;28.44;40.37;95049.88;1678103;83;21050;-56
2021/08/12 11:41:42;;;;;;;6.17;3.62;;;;;;;28.02;41.05;95061.17;1684997;83;22340;-58
2021/08/12 11:44:13;;;;;;;3.65;2.98;;;;;;;27.78;42.02;95054.37;1674471;83;21126;-57